createdAt,value
2023-02-14T00:00:01.507Z,5.60
2023-02-14T00:02:49.625Z,5.33
2023-02-14T00:05:37.735Z,5.60
2023-02-14T00:08:26.879Z,5.50
2023-02-14T00:11:16.310Z,6.07
2023-02-14T00:14:21.722Z,5.20
2023-02-14T00:17:09.641Z,5.33
2023-02-14T00:19:57.591Z,5.63
2023-02-14T00:22:45.518Z,5.33
2023-02-14T00:25:35.957Z,6.00
2023-02-14T00:28:23.791Z,5.63
2023-02-14T00:31:11.806Z,5.93
2023-02-14T00:33:59.858Z,6.00
2023-02-14T00:36:49.439Z,6.13
2023-02-14T00:39:37.421Z,6.43
2023-02-14T00:42:26.587Z,6.30
2023-02-14T00:45:14.536Z,5.70
2023-02-14T00:48:02.319Z,6.40
2023-02-14T00:50:50.159Z,6.40
2023-02-14T00:53:38.563Z,6.33
2023-02-14T00:56:26.433Z,7.00
2023-02-14T00:59:15.767Z,7.50
2023-02-14T01:02:03.683Z,7.07
2023-02-14T01:04:51.495Z,7.03
2023-02-14T01:07:39.358Z,7.37
2023-02-14T01:10:27.143Z,6.87
2023-02-14T01:13:15.541Z,6.60
2023-02-14T01:16:08.359Z,6.80
2023-02-14T01:18:56.776Z,7.07
2023-02-14T01:21:44.618Z,7.30
2023-02-14T01:24:32.442Z,6.67
2023-02-14T01:27:20.261Z,7.57
2023-02-14T01:30:09.598Z,6.83
2023-02-14T01:32:58.926Z,6.73
2023-02-14T01:35:46.748Z,7.00
2023-02-14T01:38:34.914Z,7.43
2023-02-14T01:41:23.934Z,7.07
2023-02-14T01:44:45.379Z,7.27
2023-02-14T01:47:37.859Z,7.17
2023-02-14T01:50:30.891Z,7.70
2023-02-14T01:53:22.905Z,8.43
2023-02-14T01:56:15.269Z,7.67
2023-02-14T01:59:06.946Z,7.73
2023-02-14T02:01:55.494Z,7.67
2023-02-14T02:04:47.397Z,6.97
2023-02-14T02:07:38.103Z,8.07
2023-02-14T02:10:26.289Z,7.50
2023-02-14T02:13:17.871Z,7.80
2023-02-14T02:16:24.683Z,7.97
2023-02-14T02:19:52.529Z,7.93
2023-02-14T02:23:17.063Z,8.00
2023-02-14T02:26:30.126Z,7.93
2023-02-14T02:29:47.835Z,7.37
2023-02-14T02:33:11.258Z,8.03
2023-02-14T02:36:36.536Z,9.00
2023-02-14T02:39:40.150Z,8.27
2023-02-14T02:42:40.522Z,8.20
2023-02-14T02:45:57.159Z,8.07
2023-02-14T02:48:49.985Z,8.57
2023-02-14T02:52:07.534Z,8.77
2023-02-14T02:55:01.893Z,8.50
2023-02-14T02:57:50.286Z,8.47
2023-02-14T03:00:38.269Z,8.63
2023-02-14T03:03:46.675Z,8.13
2023-02-14T03:06:34.625Z,9.60
2023-02-14T03:09:53.774Z,9.53
2023-02-14T03:13:11.731Z,8.90
2023-02-14T03:16:24.825Z,10.07
2023-02-14T03:19:49.893Z,9.07
2023-02-14T03:22:48.985Z,9.87
2023-02-14T03:25:47.721Z,9.23
2023-02-14T03:28:41.446Z,10.00
2023-02-14T03:31:33.671Z,9.87
2023-02-14T03:34:28.056Z,9.93
2023-02-14T03:37:21.514Z,10.17
2023-02-14T03:40:14.755Z,10.57
2023-02-14T03:43:09.862Z,10.30
2023-02-14T03:46:02.856Z,10.17
2023-02-14T03:48:52.655Z,10.27
2023-02-14T03:51:41.554Z,10.03
2023-02-14T03:54:32.796Z,10.33
2023-02-14T03:57:25.904Z,9.70
2023-02-14T04:00:18.268Z,11.27
2023-02-14T04:03:11.837Z,11.37
2023-02-14T04:06:00.797Z,11.03
2023-02-14T04:08:48.741Z,10.80
2023-02-14T04:11:38.465Z,11.27
2023-02-14T04:14:29.376Z,11.43
2023-02-14T04:17:36.030Z,11.37
2023-02-14T04:20:24.041Z,10.80
2023-02-14T04:23:11.849Z,12.53
2023-02-14T04:25:59.857Z,11.63
2023-02-14T04:28:47.737Z,11.47
2023-02-14T04:31:35.668Z,11.03
2023-02-14T04:34:24.966Z,10.97
2023-02-14T04:37:13.953Z,10.53
2023-02-14T04:40:01.837Z,10.87
2023-02-14T04:42:49.616Z,10.13
2023-02-14T04:45:37.480Z,11.10
2023-02-14T04:48:25.334Z,10.87
2023-02-14T04:51:14.584Z,10.27
2023-02-14T04:54:02.393Z,11.07
2023-02-14T04:56:50.395Z,11.50
2023-02-14T04:59:38.548Z,11.57
2023-02-14T05:02:26.545Z,11.23
2023-02-14T05:05:14.423Z,11.20
2023-02-14T05:08:03.581Z,11.37
2023-02-14T05:10:51.424Z,12.30
2023-02-14T05:13:39.236Z,12.37
2023-02-14T05:16:27.309Z,11.57
2023-02-14T05:19:15.285Z,11.03
2023-02-14T05:22:03.108Z,12.17
2023-02-14T05:24:52.376Z,12.73
2023-02-14T05:27:40.155Z,11.93
2023-02-14T05:30:29.195Z,11.50
2023-02-14T05:33:17.319Z,11.07
2023-02-14T05:36:05.745Z,12.37
2023-02-14T05:38:53.732Z,12.77
2023-02-14T05:41:42.868Z,12.60
2023-02-14T05:44:30.718Z,11.57
2023-02-14T05:47:18.563Z,11.77
2023-02-14T05:50:08.138Z,12.60
2023-02-14T05:52:56.343Z,12.50
2023-02-14T05:55:44.252Z,11.10
2023-02-14T05:58:33.826Z,10.83
2023-02-14T06:01:21.899Z,11.67
2023-02-14T06:04:09.775Z,11.03
2023-02-14T06:06:57.668Z,10.17
2023-02-14T06:09:45.597Z,11.77
2023-02-14T06:12:33.449Z,10.70
2023-02-14T06:15:23.884Z,11.00
2023-02-14T06:18:11.693Z,11.20
2023-02-14T06:20:59.775Z,10.60
2023-02-14T06:23:47.748Z,10.57
2023-02-14T06:26:36.141Z,10.97
2023-02-14T06:29:23.985Z,11.60
2023-02-14T06:32:13.602Z,10.67
2023-02-14T06:35:02.260Z,10.03
2023-02-14T06:37:50.146Z,10.73
2023-02-14T06:40:37.979Z,11.20
2023-02-14T06:43:25.871Z,10.60
2023-02-14T06:46:13.697Z,10.63
2023-02-14T06:49:02.841Z,10.83
2023-02-14T06:51:51.021Z,11.03
2023-02-14T06:54:39.056Z,10.40
2023-02-14T06:57:27.011Z,10.37
2023-02-14T07:00:15.788Z,10.23
2023-02-14T07:03:03.873Z,9.20
2023-02-14T07:05:54.098Z,10.30
2023-02-14T07:08:42.282Z,10.67
2023-02-14T07:11:30.241Z,10.93
2023-02-14T07:14:18.162Z,10.30
2023-02-14T07:17:06.113Z,9.97
2023-02-14T07:19:54.124Z,10.80
2023-02-14T07:22:43.312Z,10.50
2023-02-14T07:25:31.374Z,10.93
2023-02-14T07:28:19.458Z,10.43
2023-02-14T07:31:07.696Z,10.77
2023-02-14T07:33:55.685Z,10.40
2023-02-14T07:36:44.370Z,11.20
2023-02-14T07:39:33.612Z,10.43
2023-02-14T07:42:21.501Z,10.40
2023-02-14T07:45:21.140Z,10.40
2023-02-14T07:48:09.698Z,10.67
2023-02-14T07:50:58.118Z,10.33
2023-02-14T07:53:46.291Z,9.97
2023-02-14T07:56:35.524Z,10.67
2023-02-14T07:59:25.828Z,10.30
2023-02-14T08:02:13.978Z,10.33
2023-02-14T08:05:01.946Z,10.83
2023-02-14T08:07:50.523Z,10.70
2023-02-14T08:10:38.385Z,10.40
2023-02-14T08:13:27.689Z,10.63
2023-02-14T08:16:15.601Z,10.53
2023-02-14T08:19:03.562Z,10.93
2023-02-14T08:21:51.448Z,10.50
2023-02-14T08:24:39.566Z,11.07
2023-02-14T08:27:27.442Z,10.23
2023-02-14T08:30:17.463Z,10.70
2023-02-14T08:33:05.588Z,10.47
2023-02-14T08:35:53.596Z,11.07
2023-02-14T08:38:43.827Z,10.37
2023-02-14T08:41:32.153Z,10.57
2023-02-14T08:44:20.177Z,9.90
2023-02-14T08:47:09.509Z,10.90
2023-02-14T08:49:57.460Z,10.90
2023-02-14T08:52:46.082Z,11.70
2023-02-14T08:55:35.566Z,11.53
2023-02-14T08:58:23.380Z,12.10
2023-02-14T09:01:13.260Z,11.63
2023-02-14T09:04:03.710Z,12.97
2023-02-14T09:06:51.571Z,11.13
2023-02-14T09:09:39.414Z,11.93
2023-02-14T09:12:27.462Z,12.07
2023-02-14T09:15:15.420Z,12.20
2023-02-14T09:18:03.301Z,13.00
2023-02-14T09:20:52.600Z,12.67
2023-02-14T09:23:40.430Z,12.50
2023-02-14T09:26:28.736Z,12.33
2023-02-14T09:29:16.812Z,12.60
2023-02-14T09:32:05.125Z,12.13
2023-02-14T09:34:53.207Z,11.40
2023-02-14T09:37:42.445Z,12.30
2023-02-14T09:40:32.868Z,12.63
2023-02-14T09:43:30.640Z,11.80
2023-02-14T09:46:20.537Z,12.10
2023-02-14T09:49:09.657Z,11.20
2023-02-14T09:51:59.837Z,11.13
2023-02-14T09:54:57.432Z,11.70
2023-02-14T09:57:56.660Z,11.97
2023-02-14T10:00:49.749Z,11.40
2023-02-14T10:04:04.170Z,11.33
2023-02-14T10:06:57.061Z,12.80
2023-02-14T10:09:57.486Z,11.83
2023-02-14T10:12:51.009Z,11.87
2023-02-14T10:15:43.226Z,11.37
2023-02-14T10:18:39.378Z,11.07
2023-02-14T10:21:31.918Z,11.17
2023-02-14T10:24:25.940Z,10.43
2023-02-14T10:27:25.784Z,10.60
2023-02-14T10:30:17.251Z,11.17
2023-02-14T10:33:09.744Z,11.03
2023-02-14T10:36:04.271Z,10.63
2023-02-14T10:39:02.478Z,10.67
2023-02-14T10:41:53.715Z,11.53
2023-02-14T10:44:49.563Z,11.17
2023-02-14T10:47:47.863Z,11.20
2023-02-14T10:50:44.450Z,11.37
2023-02-14T10:53:41.732Z,11.27
2023-02-14T10:56:35.207Z,11.13
2023-02-14T10:59:26.746Z,10.17
2023-02-14T11:02:18.191Z,9.90
2023-02-14T11:05:07.140Z,10.73
2023-02-14T11:07:56.381Z,10.43
2023-02-14T11:10:44.534Z,10.20
2023-02-14T11:13:35.753Z,10.10
2023-02-14T11:16:31.368Z,10.10
2023-02-14T11:19:26.794Z,11.07
2023-02-14T11:22:30.697Z,9.53
2023-02-14T11:25:21.762Z,9.77
2023-02-14T11:28:16.948Z,10.03
2023-02-14T11:31:05.298Z,9.10
2023-02-14T11:33:54.328Z,9.73
2023-02-14T11:36:43.676Z,9.60
2023-02-14T11:39:34.768Z,9.23
2023-02-14T11:42:36.279Z,9.80
2023-02-14T11:45:31.119Z,9.20
2023-02-14T11:48:36.750Z,8.60
2023-02-14T11:51:31.684Z,8.87
2023-02-14T11:54:31.222Z,8.67
2023-02-14T11:57:28.279Z,10.00
2023-02-14T12:00:19.348Z,9.00
2023-02-14T12:03:08.255Z,9.07
2023-02-14T12:06:00.856Z,9.77
2023-02-14T12:08:48.692Z,9.40
2023-02-14T12:11:39.498Z,10.63
2023-02-14T12:14:30.301Z,10.33
2023-02-14T12:17:31.221Z,9.90
2023-02-14T12:20:24.348Z,10.37
2023-02-14T12:23:19.171Z,10.80
2023-02-14T12:26:16.265Z,10.13
2023-02-14T12:29:14.502Z,10.60
2023-02-14T12:32:06.944Z,10.57
2023-02-14T12:35:01.737Z,10.77
2023-02-14T12:38:04.866Z,10.80
2023-02-14T12:40:58.575Z,11.43
2023-02-14T12:43:50.808Z,11.93
2023-02-14T12:46:56.413Z,11.67
2023-02-14T12:50:10.656Z,11.60
2023-02-14T12:53:38.275Z,11.70
2023-02-14T12:56:39.782Z,11.97
2023-02-14T12:59:38.568Z,11.80
2023-02-14T13:02:55.496Z,11.10
2023-02-14T13:05:58.855Z,11.13
2023-02-14T13:09:07.873Z,11.40
2023-02-14T13:12:11.301Z,11.43
2023-02-14T13:15:10.853Z,10.93
2023-02-14T13:18:11.439Z,11.23
2023-02-14T13:21:02.541Z,10.43
2023-02-14T13:23:55.018Z,10.67
2023-02-14T13:26:45.645Z,11.17
2023-02-14T13:29:42.687Z,10.80
2023-02-14T13:32:34.085Z,10.60
2023-02-14T13:35:25.279Z,10.57
2023-02-14T13:38:16.260Z,10.10
2023-02-14T13:41:05.672Z,9.80
2023-02-14T13:43:56.802Z,9.90
2023-02-14T13:46:51.588Z,9.73
2023-02-14T13:49:46.802Z,10.00
2023-02-14T13:52:44.124Z,9.37
2023-02-14T13:55:37.095Z,9.60
2023-02-14T13:58:26.013Z,9.27
2023-02-14T14:01:32.210Z,9.60
2023-02-14T14:04:37.840Z,9.27
2023-02-14T14:07:30.109Z,9.70
2023-02-14T14:10:43.482Z,9.53
2023-02-14T14:13:55.995Z,9.50
2023-02-14T14:16:58.433Z,9.77
2023-02-14T14:19:47.409Z,9.90
2023-02-14T14:22:47.738Z,9.97
2023-02-14T14:25:40.927Z,9.40
2023-02-14T14:28:32.364Z,9.67
2023-02-14T14:31:21.752Z,10.07
2023-02-14T14:34:17.719Z,9.53
2023-02-14T14:37:07.898Z,9.93
2023-02-14T14:39:57.822Z,9.50
2023-02-14T14:42:48.606Z,9.60
2023-02-14T14:45:36.611Z,10.47
2023-02-14T14:48:30.942Z,10.87
2023-02-14T14:51:25.006Z,10.40
2023-02-14T14:54:19.028Z,11.63
2023-02-14T14:57:07.285Z,11.20
2023-02-14T15:00:22.824Z,10.80
2023-02-14T15:03:17.317Z,10.53
2023-02-14T15:06:11.215Z,10.67
2023-02-14T15:08:59.107Z,10.90
2023-02-14T15:12:05.561Z,9.77
2023-02-14T15:14:54.849Z,10.53
2023-02-14T15:17:45.448Z,10.27
2023-02-14T15:20:33.539Z,10.43
2023-02-14T15:23:24.296Z,10.00
2023-02-14T15:26:18.986Z,10.23
2023-02-14T15:29:07.770Z,9.83
2023-02-14T15:31:57.321Z,9.93
2023-02-14T15:34:47.005Z,10.00
2023-02-14T15:37:35.194Z,10.30
2023-02-14T15:40:26.462Z,9.97
2023-02-14T15:43:16.729Z,9.90
2023-02-14T15:46:17.871Z,9.60
2023-02-14T15:49:10.986Z,9.73
2023-02-14T15:52:03.541Z,9.60
2023-02-14T15:54:51.417Z,9.20
2023-02-14T15:57:39.593Z,9.90
2023-02-14T16:00:28.063Z,10.03
2023-02-14T16:03:21.935Z,11.55
2023-02-14T16:06:17.377Z,10.10
2023-02-14T16:09:08.702Z,9.13
2023-02-14T16:11:56.547Z,9.23
2023-02-14T16:14:46.442Z,8.87
2023-02-14T16:17:35.443Z,9.43
2023-02-14T16:20:28.080Z,9.30
2023-02-14T16:23:22.086Z,9.20
2023-02-14T16:26:12.222Z,9.10
2023-02-14T16:29:02.783Z,8.80
2023-02-14T16:35:01.737Z,8.90
2023-02-14T16:37:51.843Z,9.30
2023-02-14T16:40:39.709Z,8.70
2023-02-14T16:43:28.942Z,8.70
2023-02-14T16:46:22.112Z,8.20
2023-02-14T16:49:10.266Z,9.57
2023-02-14T16:51:58.117Z,8.60
2023-02-14T16:54:46.105Z,8.83
2023-02-14T16:57:36.547Z,8.43
2023-02-14T17:00:27.361Z,8.77
2023-02-14T17:03:15.283Z,9.33
2023-02-14T17:06:03.884Z,9.10
2023-02-14T17:08:53.819Z,9.33
2023-02-14T17:11:44.881Z,9.13
2023-02-14T17:14:37.344Z,9.27
2023-02-14T17:17:27.129Z,8.67
2023-02-14T17:20:15.944Z,8.87
2023-02-14T17:23:04.357Z,8.67
2023-02-14T17:25:52.270Z,9.03
2023-02-14T17:28:40.112Z,9.70
2023-02-14T17:31:28.564Z,10.03
2023-02-14T17:34:17.938Z,9.47
2023-02-14T17:37:05.744Z,9.57
2023-02-14T17:39:54.040Z,8.87
2023-02-14T17:42:42.426Z,8.73
2023-02-14T17:45:30.411Z,8.87
2023-02-14T17:48:18.332Z,8.73
2023-02-14T17:51:09.294Z,8.50
2023-02-14T17:53:58.949Z,9.13
2023-02-14T17:56:47.014Z,8.90
2023-02-14T17:59:35.197Z,9.20
2023-02-14T18:02:23.029Z,9.67
2023-02-14T18:05:12.194Z,9.33
2023-02-14T18:08:01.352Z,9.27
2023-02-14T18:10:49.188Z,9.77
2023-02-14T18:13:37.768Z,9.73
2023-02-14T18:16:25.740Z,9.97
2023-02-14T18:19:15.868Z,9.77
2023-02-14T18:22:03.748Z,11.03
2023-02-14T18:24:52.934Z,10.80
2023-02-14T18:27:40.718Z,10.10
2023-02-14T18:30:28.575Z,10.07
2023-02-14T18:33:17.793Z,10.43
2023-02-14T18:36:07.204Z,10.57
2023-02-14T18:38:56.237Z,9.63
2023-02-14T18:41:45.388Z,10.97
2023-02-14T18:44:33.466Z,10.13
2023-02-14T18:47:21.352Z,9.83
2023-02-14T18:50:09.651Z,10.20
2023-02-14T18:52:57.538Z,10.77
2023-02-14T18:55:45.626Z,11.00
2023-02-14T18:58:35.034Z,12.63
2023-02-14T19:01:24.765Z,10.40
2023-02-14T19:04:13.951Z,10.10
2023-02-14T19:07:04.353Z,10.70
2023-02-14T19:09:52.579Z,10.87
2023-02-14T19:12:40.408Z,10.73
2023-02-14T19:15:29.939Z,10.63
2023-02-14T19:18:17.759Z,10.67
2023-02-14T19:21:11.182Z,10.57
2023-02-14T19:23:59.725Z,10.53
2023-02-14T19:26:48.343Z,15.20
2023-02-14T19:29:36.361Z,10.80
2023-02-14T19:32:25.631Z,12.07
2023-02-14T19:35:13.485Z,11.27
2023-02-14T19:38:03.405Z,10.93
2023-02-14T19:40:51.433Z,11.50
2023-02-14T19:43:39.731Z,10.73
2023-02-14T19:46:28.535Z,12.10
2023-02-14T19:49:19.968Z,10.07
2023-02-14T19:52:17.249Z,10.77
2023-02-14T19:55:21.952Z,11.77
2023-02-14T19:58:09.793Z,13.33
2023-02-14T20:01:01.157Z,10.83
2023-02-14T20:03:50.728Z,10.93
2023-02-14T20:06:40.209Z,11.30
2023-02-14T20:09:29.160Z,11.13
2023-02-14T20:12:16.992Z,10.10
2023-02-14T20:15:05.582Z,9.97
2023-02-14T20:17:53.493Z,10.03
2023-02-14T20:21:05.594Z,10.53
2023-02-14T20:23:55.518Z,11.00
2023-02-14T20:26:43.618Z,11.30
2023-02-14T20:29:31.889Z,9.87
2023-02-14T20:32:20.017Z,10.53
2023-02-14T20:35:08.474Z,9.97
2023-02-14T20:37:56.325Z,10.07
2023-02-14T20:40:45.859Z,10.27
2023-02-14T20:43:33.996Z,13.57
2023-02-14T20:46:22.779Z,9.27
2023-02-14T20:49:12.345Z,9.87
2023-02-14T20:52:00.556Z,9.83
2023-02-14T20:54:48.481Z,9.90
2023-02-14T20:57:38.463Z,9.97
2023-02-14T21:00:27.939Z,11.67
2023-02-14T21:03:15.821Z,10.80
2023-02-14T21:06:04.437Z,9.67
2023-02-14T21:08:52.671Z,9.97
2023-02-14T21:11:40.497Z,10.53
2023-02-14T21:14:30.166Z,11.77
2023-02-14T21:17:17.983Z,11.03
2023-02-14T21:20:06.743Z,11.00
2023-02-14T21:22:57.286Z,13.83
2023-02-14T21:25:45.440Z,11.70
2023-02-14T21:28:33.457Z,9.93
2023-02-14T21:31:25.449Z,10.13
2023-02-14T21:34:15.989Z,10.97
2023-02-14T21:37:04.141Z,14.07
2023-02-14T21:39:51.955Z,11.17
2023-02-14T21:42:39.762Z,11.43
2023-02-14T21:45:45.058Z,16.10
2023-02-14T21:48:52.222Z,11.60
2023-02-14T21:51:40.649Z,11.17
2023-02-14T21:54:28.504Z,11.73
2023-02-14T21:57:16.362Z,10.93
2023-02-14T22:00:05.593Z,12.07
2023-02-14T22:02:53.750Z,12.63
2023-02-14T22:05:43.118Z,11.40
2023-02-14T22:08:31.674Z,11.07
2023-02-14T22:11:20.358Z,11.07
2023-02-14T22:14:08.309Z,10.53
2023-02-14T22:16:56.255Z,12.73
2023-02-14T22:19:44.166Z,15.23
2023-02-14T22:22:33.976Z,10.90
2023-02-14T22:25:22.150Z,11.27
2023-02-14T22:28:10.584Z,11.57
2023-02-14T22:31:00.904Z,12.37
2023-02-14T22:33:50.696Z,11.20
2023-02-14T22:36:39.033Z,13.40
2023-02-14T22:39:28.187Z,14.23
2023-02-14T22:42:16.163Z,12.03
2023-02-14T22:45:05.292Z,12.63
2023-02-14T22:47:53.123Z,11.40
2023-02-14T22:50:41.120Z,11.00
2023-02-14T22:53:29.002Z,11.20
2023-02-14T22:56:20.447Z,11.20
2023-02-14T22:59:09.987Z,14.47
2023-02-14T23:01:58.051Z,11.37
2023-02-14T23:04:46.944Z,11.90
2023-02-14T23:07:34.879Z,14.67
2023-02-14T23:10:22.849Z,15.13
2023-02-14T23:13:30.282Z,11.53
2023-02-14T23:16:35.739Z,13.17
2023-02-14T23:19:43.155Z,12.43
2023-02-14T23:22:33.401Z,11.13
2023-02-14T23:25:21.278Z,13.10
2023-02-14T23:28:09.091Z,12.77
2023-02-14T23:31:02.425Z,12.80
2023-02-14T23:33:52.018Z,11.27
2023-02-14T23:36:42.961Z,18.13
2023-02-14T23:39:32.658Z,11.90
2023-02-14T23:42:20.648Z,12.80
2023-02-14T23:45:29.382Z,13.20
2023-02-14T23:48:18.638Z,14.10
2023-02-14T23:51:06.614Z,12.77
2023-02-14T23:53:54.990Z,12.07
2023-02-14T23:56:43.618Z,11.87
2023-02-14T23:59:31.835Z,12.53
